Time;durP1;ratioP1;P1;durP2;ratioP2;P2;SDS_P1;SDS_P2;PMS_P1;PMS_P2;Temp;Humidity;BMP_temperature;BMP_pressure;BME280_temperature;BME280_humidity;BME280_pressure;Samples;Min_cycle;Max_cycle;Signal;HPM_P1;HPM_P2
2023/04/28 00:04:58;;;;;;;7.93;2.10;;;;;;;;;;10324691;28;20026;-59
2023/04/28 00:09:58;;;;;;;7.05;2.35;;;;;;;;;;10324394;28;20045;-57
2023/04/28 00:14:59;;;;;;;5.00;1.70;;;;;;;;;;10322838;28;20038;-57
2023/04/28 00:20:00;;;;;;;5.38;2.42;;;;;;;;;;10323279;28;20386;-56
2023/04/28 00:25:01;;;;;;;6.65;2.28;;;;;;;;;;10324502;28;20037;-55
2023/04/28 00:30:02;;;;;;;5.05;2.33;;;;;;;;;;10314957;28;20394;-56
2023/04/28 00:35:02;;;;;;;3.78;2.00;;;;;;;;;;10323143;28;20371;-57
2023/04/28 00:40:04;;;;;;;4.68;2.33;;;;;;;;;;10321944;28;20054;-57
2023/04/28 00:45:06;;;;;;;4.55;2.40;;;;;;;;;;10324094;28;20030;-57
2023/04/28 00:50:07;;;;;;;6.57;2.03;;;;;;;;;;10322162;28;20022;-57
2023/04/28 00:55:08;;;;;;;7.75;2.30;;;;;;;;;;10322936;28;20042;-57
2023/04/28 01:00:10;;;;;;;4.45;2.22;;;;;;;;;;10323201;28;20406;-57
2023/04/28 01:05:12;;;;;;;4.70;2.10;;;;;;;;;;10321754;28;20057;-58
2023/04/28 01:10:13;;;;;;;3.70;2.35;;;;;;;;;;10317261;28;20022;-57
2023/04/28 01:15:17;;;;;;;4.32;2.40;;;;;;;;;;10323213;28;20040;-57
2023/04/28 01:20:18;;;;;;;2.80;1.65;;;;;;;;;;10320277;28;20035;-55
2023/04/28 01:25:19;;;;;;;5.25;2.13;;;;;;;;;;10322159;28;20064;-55
2023/04/28 01:30:19;;;;;;;9.05;2.15;;;;;;;;;;10312070;28;20458;-57
2023/04/28 01:35:20;;;;;;;5.38;1.83;;;;;;;;;;10324929;28;20030;-57
2023/04/28 01:40:21;;;;;;;3.35;1.92;;;;;;;;;;10321451;28;20050;-56
2023/04/28 01:45:21;;;;;;;2.55;1.95;;;;;;;;;;10325226;28;20031;-57
2023/04/28 01:50:22;;;;;;;6.03;2.10;;;;;;;;;;10329350;28;20026;-57
2023/04/28 01:55:26;;;;;;;3.28;1.83;;;;;;;;;;10324737;28;20046;-58
2023/04/28 02:00:27;;;;;;;3.38;2.13;;;;;;;;;;10325618;28;20023;-57
2023/04/28 02:05:28;;;;;;;3.38;1.92;;;;;;;;;;10328642;28;20034;-57
2023/04/28 02:10:28;;;;;;;3.97;2.13;;;;;;;;;;10322135;28;20387;-57
2023/04/28 02:15:29;;;;;;;3.42;2.15;;;;;;;;;;10329385;28;20035;-57
2023/04/28 02:20:30;;;;;;;4.57;2.00;;;;;;;;;;10325383;28;20491;-59
2023/04/28 02:25:30;;;;;;;4.03;2.00;;;;;;;;;;10327581;28;20031;-58
2023/04/28 02:30:31;;;;;;;3.90;1.98;;;;;;;;;;10327581;28;20030;-58
2023/04/28 02:35:31;;;;;;;3.47;2.10;;;;;;;;;;10327135;28;20084;-57
2023/04/28 02:40:32;;;;;;;4.68;2.05;;;;;;;;;;10327025;28;20046;-57
2023/04/28 02:45:33;;;;;;;3.97;2.22;;;;;;;;;;10324276;28;20030;-59
2023/04/28 02:50:33;;;;;;;3.53;1.95;;;;;;;;;;10319247;28;20023;-59
2023/04/28 02:55:34;;;;;;;2.35;1.88;;;;;;;;;;10326094;28;20034;-59
2023/04/28 03:00:35;;;;;;;3.08;1.98;;;;;;;;;;10327455;28;20073;-59
2023/04/28 03:05:35;;;;;;;4.15;2.00;;;;;;;;;;10319434;28;20026;-59
2023/04/28 03:10:36;;;;;;;2.95;1.90;;;;;;;;;;10325878;28;20018;-56
2023/04/28 03:15:36;;;;;;;2.08;1.73;;;;;;;;;;10317213;28;20042;-59
2023/04/28 03:20:37;;;;;;;4.97;2.00;;;;;;;;;;10337316;28;20081;-60
2023/04/28 03:25:38;;;;;;;2.50;1.70;;;;;;;;;;10320013;28;20214;-57
2023/04/28 03:30:38;;;;;;;4.30;1.98;;;;;;;;;;10322794;28;20058;-59
2023/04/28 03:35:39;;;;;;;3.88;2.10;;;;;;;;;;10324413;28;20026;-60
2023/04/28 03:40:39;;;;;;;2.58;1.95;;;;;;;;;;10323905;28;20061;-59
2023/04/28 03:45:40;;;;;;;4.15;1.70;;;;;;;;;;10322263;28;20398;-57
2023/04/28 03:50:42;;;;;;;5.32;2.20;;;;;;;;;;10323751;28;20512;-59
2023/04/28 03:55:43;;;;;;;4.32;1.55;;;;;;;;;;10323635;28;20054;-58
2023/04/28 04:00:43;;;;;;;3.08;1.83;;;;;;;;;;10322403;28;20501;-54
2023/04/28 04:05:44;;;;;;;3.67;2.05;;;;;;;;;;10321648;28;20042;-55
2023/04/28 04:10:45;;;;;;;1.83;1.70;;;;;;;;;;10319233;28;20029;-53
2023/04/28 04:15:45;;;;;;;6.03;2.03;;;;;;;;;;10320246;28;20421;-53
2023/04/28 04:20:46;;;;;;;4.55;1.92;;;;;;;;;;10317098;28;20643;-52
2023/04/28 04:25:47;;;;;;;3.78;1.85;;;;;;;;;;10322576;28;20042;-56
2023/04/28 04:30:48;;;;;;;2.88;2.00;;;;;;;;;;10296369;28;20037;-55
2023/04/28 04:35:48;;;;;;;4.25;2.13;;;;;;;;;;10322675;28;20410;-54
2023/04/28 04:40:49;;;;;;;2.38;1.60;;;;;;;;;;10298244;28;1118257;-57
2023/04/28 04:45:50;;;;;;;2.20;1.70;;;;;;;;;;10322488;28;20293;-56
2023/04/28 04:50:50;;;;;;;7.28;2.20;;;;;;;;;;10323766;28;20049;-56
2023/04/28 04:55:51;;;;;;;2.30;1.70;;;;;;;;;;10321325;28;20038;-54
2023/04/28 05:00:51;;;;;;;2.95;1.80;;;;;;;;;;10319767;28;20053;-54
2023/04/28 05:05:52;;;;;;;1.70;1.60;;;;;;;;;;10321672;28;20023;-54
2023/04/28 05:10:53;;;;;;;3.55;1.90;;;;;;;;;;10329099;28;20045;-55
2023/04/28 05:15:53;;;;;;;2.45;1.67;;;;;;;;;;10331015;28;20474;-54
2023/04/28 05:20:54;;;;;;;4.68;2.05;;;;;;;;;;10331308;28;20623;-55
2023/04/28 05:25:55;;;;;;;2.42;1.50;;;;;;;;;;10332066;28;20026;-55
2023/04/28 05:30:55;;;;;;;3.17;1.70;;;;;;;;;;10331761;28;20045;-55
2023/04/28 05:35:56;;;;;;;4.25;1.60;;;;;;;;;;10329787;28;20023;-55
2023/04/28 05:40:57;;;;;;;13.68;2.15;;;;;;;;;;10328487;28;20125;-54
2023/04/28 05:45:57;;;;;;;11.85;2.22;;;;;;;;;;10326009;28;20042;-58
2023/04/28 05:50:58;;;;;;;12.70;1.98;;;;;;;;;;10324921;28;20085;-54
2023/04/28 05:55:59;;;;;;;20.58;2.10;;;;;;;;;;10326137;28;20050;-55
2023/04/28 06:01:00;;;;;;;4.57;2.15;;;;;;;;;;10325527;28;20113;-56
2023/04/28 06:06:00;;;;;;;6.82;2.10;;;;;;;;;;10323309;28;20120;-54
2023/04/28 06:11:01;;;;;;;6.28;2.05;;;;;;;;;;10306514;28;20340;-54
2023/04/28 06:16:01;;;;;;;10.63;2.63;;;;;;;;;;10329220;28;20029;-54
2023/04/28 06:21:02;;;;;;;10.40;2.67;;;;;;;;;;10317068;28;20038;-54
2023/04/28 06:26:03;;;;;;;5.30;2.58;;;;;;;;;;10330675;28;20022;-55
2023/04/28 06:31:03;;;;;;;9.93;2.92;;;;;;;;;;10328716;28;20458;-56
2023/04/28 06:36:05;;;;;;;9.93;2.97;;;;;;;;;;10329726;28;20113;-54
2023/04/28 06:41:05;;;;;;;4.90;2.28;;;;;;;;;;10321566;28;20062;-53
2023/04/28 06:46:06;;;;;;;9.52;2.75;;;;;;;;;;10330672;28;20030;-53
2023/04/28 06:51:06;;;;;;;7.35;2.70;;;;;;;;;;10320230;28;20034;-54
2023/04/28 06:56:07;;;;;;;11.65;2.72;;;;;;;;;;10329048;28;20529;-53
2023/04/28 07:01:08;;;;;;;5.25;2.53;;;;;;;;;;10328558;28;20386;-53
2023/04/28 07:06:08;;;;;;;14.55;2.75;;;;;;;;;;10320879;28;20038;-53
2023/04/28 07:11:09;;;;;;;7.95;2.50;;;;;;;;;;10323244;28;20038;-53
2023/04/28 07:16:09;;;;;;;9.00;2.58;;;;;;;;;;10323179;28;20046;-52
2023/04/28 07:21:10;;;;;;;13.13;2.70;;;;;;;;;;10325263;28;20030;-53
2023/04/28 07:26:11;;;;;;;10.40;2.58;;;;;;;;;;10326231;28;20429;-53
2023/04/28 07:31:11;;;;;;;6.97;2.38;;;;;;;;;;10337684;28;20377;-53
2023/04/28 07:36:12;;;;;;;5.90;2.15;;;;;;;;;;10326436;28;20026;-51
2023/04/28 07:41:12;;;;;;;7.93;2.75;;;;;;;;;;10323739;28;20640;-53
2023/04/28 07:46:13;;;;;;;6.30;2.42;;;;;;;;;;10326093;28;20037;-54
2023/04/28 07:51:14;;;;;;;9.40;2.63;;;;;;;;;;10295720;28;20030;-53
2023/04/28 07:56:14;;;;;;;3.72;2.22;;;;;;;;;;10326427;28;20026;-53
2023/04/28 08:01:15;;;;;;;5.15;2.50;;;;;;;;;;10325834;28;20036;-53
2023/04/28 08:06:16;;;;;;;4.78;2.17;;;;;;;;;;10324835;28;20382;-53
2023/04/28 08:11:17;;;;;;;4.03;2.00;;;;;;;;;;10324864;28;20061;-52
2023/04/28 08:16:18;;;;;;;5.80;2.17;;;;;;;;;;10324183;28;20028;-54
2023/04/28 08:21:18;;;;;;;6.20;2.47;;;;;;;;;;10323896;28;20036;-53
2023/04/28 08:26:19;;;;;;;4.57;2.22;;;;;;;;;;10322282;28;20029;-59
2023/04/28 08:31:20;;;;;;;4.43;2.38;;;;;;;;;;10324191;28;20034;-55
2023/04/28 08:36:22;;;;;;;3.70;1.80;;;;;;;;;;10318140;28;20026;-55
2023/04/28 08:41:25;;;;;;;2.83;2.00;;;;;;;;;;10322341;28;20053;-58
2023/04/28 08:46:27;;;;;;;3.13;1.90;;;;;;;;;;10320907;28;20034;-58
2023/04/28 08:51:43;;;;;;;8.50;2.28;;;;;;;;;;10304798;28;20038;-53
2023/04/28 08:56:45;;;;;;;3.47;2.00;;;;;;;;;;10316660;28;20034;-52
2023/04/28 09:01:48;;;;;;;3.28;1.80;;;;;;;;;;10312372;28;20026;-57
2023/04/28 09:06:49;;;;;;;7.75;1.60;;;;;;;;;;10311541;28;20081;-52
2023/04/28 09:11:59;;;;;;;5.18;1.95;;;;;;;;;;10317275;28;20062;-51
2023/04/28 09:17:02;;;;;;;8.35;1.98;;;;;;;;;;10318728;28;20054;-53
2023/04/28 09:22:04;;;;;;;2.75;1.77;;;;;;;;;;10313712;28;20045;-53
2023/04/28 09:27:09;;;;;;;2.38;1.90;;;;;;;;;;10313684;28;20043;-53
2023/04/28 09:32:21;;;;;;;4.78;1.80;;;;;;;;;;10320277;28;20076;-59
2023/04/28 09:37:34;;;;;;;4.35;2.28;;;;;;;;;;10314075;28;20049;-54
2023/04/28 09:42:43;;;;;;;4.70;1.98;;;;;;;;;;10344450;28;20129;-55
2023/04/28 09:47:46;;;;;;;6.43;2.08;;;;;;;;;;10315139;28;20098;-53
2023/04/28 09:52:58;;;;;;;5.28;2.40;;;;;;;;;;10322318;28;20034;-55
2023/04/28 09:58:04;;;;;;;3.83;2.08;;;;;;;;;;10338419;28;20036;-52
2023/04/28 10:03:08;;;;;;;3.83;2.13;;;;;;;;;;10330500;28;20038;-58
2023/04/28 10:08:09;;;;;;;11.43;2.30;;;;;;;;;;10304524;28;20044;-59
2023/04/28 10:13:10;;;;;;;3.88;1.70;;;;;;;;;;10304193;28;20061;-57
2023/04/28 10:18:14;;;;;;;3.55;1.85;;;;;;;;;;10326594;28;20034;-54
2023/04/28 10:23:46;;;;;;;3.83;1.95;;;;;;;;;;10329307;28;20060;-56
2023/04/28 10:28:49;;;;;;;3.85;2.15;;;;;;;;;;10313117;28;20187;-59
2023/04/28 10:33:50;;;;;;;4.97;2.63;;;;;;;;;;10326597;28;20034;-52
2023/04/28 10:39:14;;;;;;;7.90;3.30;;;;;;;;;;10331231;28;20045;-55
2023/04/28 10:44:29;;;;;;;4.28;2.40;;;;;;;;;;10328889;28;20059;-58
2023/04/28 10:50:00;;;;;;;7.15;2.35;;;;;;;;;;10327205;28;20450;-56
2023/04/28 10:55:38;;;;;;;4.03;2.40;;;;;;;;;;10326046;28;20034;-54
2023/04/28 11:00:39;;;;;;;;;;;;;;;;;;10325679;28;20038;-54
2023/04/28 11:06:35;;;;;;;4.55;2.13;;;;;;;;;;10316628;28;19937;-49
2023/04/28 11:11:37;;;;;;;3.90;2.33;;;;;;;;;;10325958;28;20031;-53
2023/04/28 11:16:52;;;;;;;5.15;2.10;;;;;;;;;;10337008;28;20093;-50
2023/04/28 11:21:56;;;;;;;5.75;2.00;;;;;;;;;;10336247;28;20038;-60
2023/04/28 11:26:58;;;;;;;3.20;2.00;;;;;;;;;;10328096;28;20014;-49
2023/04/28 11:31:59;;;;;;;3.95;2.10;;;;;;;;;;10325272;28;20040;-52
2023/04/28 11:37:00;;;;;;;6.47;2.33;;;;;;;;;;10341204;28;20042;-53
2023/04/28 11:42:09;;;;;;;3.80;2.10;;;;;;;;;;10326957;28;20038;-52
2023/04/28 11:47:09;;;;;;;8.85;2.53;;;;;;;;;;10329377;28;20111;-56
2023/04/28 11:52:11;;;;;;;21.90;2.88;;;;;;;;;;10328014;28;20038;-54
2023/04/28 11:57:20;;;;;;;21.13;3.45;;;;;;;;;;10329096;28;20061;-59
2023/04/28 12:02:30;;;;;;;10.93;3.80;;;;;;;;;;10320405;28;20039;-57
2023/04/28 12:07:41;;;;;;;6.05;2.55;;;;;;;;;;10310022;28;20534;-61
2023/04/28 12:12:42;;;;;;;5.82;3.08;;;;;;;;;;10325393;28;20089;-61
2023/04/28 12:17:44;;;;;;;6.63;2.47;;;;;;;;;;10324474;28;20450;-62
2023/04/28 12:22:47;;;;;;;10.48;2.70;;;;;;;;;;10323737;28;20026;-61
2023/04/28 12:28:06;;;;;;;12.00;2.88;;;;;;;;;;10325411;28;20038;-62
2023/04/28 12:33:24;;;;;;;7.25;2.67;;;;;;;;;;10325418;28;20478;-59
2023/04/28 12:38:26;;;;;;;9.00;2.73;;;;;;;;;;10324192;28;20042;-63
2023/04/28 12:43:28;;;;;;;7.00;2.42;;;;;;;;;;10323734;28;20088;-63
2023/04/28 12:48:29;;;;;;;4.38;2.25;;;;;;;;;;10325802;28;20030;-61
2023/04/28 12:53:30;;;;;;;3.17;2.08;;;;;;;;;;10331367;28;20422;-64
2023/04/28 12:58:30;;;;;;;10.27;2.75;;;;;;;;;;10322697;28;20034;-64
2023/04/28 13:03:31;;;;;;;5.90;2.50;;;;;;;;;;10324366;28;20037;-64
2023/04/28 13:08:32;;;;;;;3.65;1.92;;;;;;;;;;10324221;28;20026;-64
2023/04/28 13:13:33;;;;;;;3.60;2.00;;;;;;;;;;10314883;28;20035;-64
2023/04/28 13:18:34;;;;;;;3.63;2.65;;;;;;;;;;10324248;28;20025;-57
2023/04/28 13:23:34;;;;;;;4.32;2.67;;;;;;;;;;10305505;28;20030;-57
2023/04/28 13:28:35;;;;;;;6.20;2.15;;;;;;;;;;10327185;28;20080;-60
2023/04/28 13:33:36;;;;;;;3.88;2.35;;;;;;;;;;10331504;28;20140;-57
2023/04/28 13:38:36;;;;;;;4.57;2.88;;;;;;;;;;10333407;28;20101;-58
2023/04/28 13:43:37;;;;;;;6.35;3.35;;;;;;;;;;10331177;28;20026;-57
2023/04/28 13:48:38;;;;;;;17.50;3.70;;;;;;;;;;10331396;28;20030;-58
2023/04/28 13:53:39;;;;;;;4.22;2.65;;;;;;;;;;10331448;28;20038;-55
2023/04/28 13:58:40;;;;;;;7.82;3.10;;;;;;;;;;10328641;28;20026;-55
2023/04/28 14:03:40;;;;;;;11.48;2.97;;;;;;;;;;10310879;28;20097;-55
2023/04/28 14:08:41;;;;;;;9.40;2.95;;;;;;;;;;10322293;28;20022;-57
2023/04/28 14:13:42;;;;;;;8.73;2.60;;;;;;;;;;10331381;28;20157;-56
2023/04/28 14:18:42;;;;;;;5.50;2.80;;;;;;;;;;10328930;28;20026;-57
2023/04/28 14:23:43;;;;;;;10.98;2.83;;;;;;;;;;10329356;28;20030;-58
2023/04/28 14:28:43;;;;;;;5.43;3.03;;;;;;;;;;10330260;28;20458;-57
2023/04/28 14:33:44;;;;;;;6.45;2.80;;;;;;;;;;10329333;28;20049;-57
2023/04/28 14:38:45;;;;;;;10.07;3.15;;;;;;;;;;10330221;28;20042;-55
2023/04/28 14:43:45;;;;;;;3.83;2.80;;;;;;;;;;10321186;28;20136;-57
2023/04/28 14:48:46;;;;;;;6.88;3.13;;;;;;;;;;10322030;28;20440;-58
2023/04/28 14:53:48;;;;;;;6.18;3.25;;;;;;;;;;10319388;28;20038;-58
2023/04/28 14:58:48;;;;;;;5.90;3.15;;;;;;;;;;10323863;28;20498;-58
2023/04/28 15:03:49;;;;;;;9.45;3.45;;;;;;;;;;10323893;28;20033;-57
2023/04/28 15:08:49;;;;;;;9.20;2.88;;;;;;;;;;10319198;28;20034;-55
2023/04/28 15:13:50;;;;;;;8.88;3.38;;;;;;;;;;10322774;28;20035;-57
2023/04/28 15:18:51;;;;;;;4.75;3.20;;;;;;;;;;10322416;28;20027;-57
2023/04/28 15:23:51;;;;;;;7.95;3.58;;;;;;;;;;10323613;28;20030;-57
2023/04/28 15:28:53;;;;;;;6.28;4.07;;;;;;;;;;10319041;28;20037;-55
2023/04/28 15:33:54;;;;;;;8.50;3.45;;;;;;;;;;10318863;28;20137;-61
2023/04/28 15:38:55;;;;;;;10.02;4.20;;;;;;;;;;10317277;28;20038;-57
2023/04/28 15:43:56;;;;;;;8.32;3.33;;;;;;;;;;10316334;28;20120;-60
2023/04/28 15:48:57;;;;;;;5.35;2.95;;;;;;;;;;10317571;28;20061;-59
2023/04/28 15:53:57;;;;;;;5.57;3.22;;;;;;;;;;10320044;28;20045;-59
2023/04/28 15:58:58;;;;;;;11.30;3.90;;;;;;;;;;10319311;28;20422;-57
2023/04/28 16:03:59;;;;;;;8.90;3.40;;;;;;;;;;10320939;28;20049;-58
2023/04/28 16:08:59;;;;;;;4.65;2.80;;;;;;;;;;10320030;28;20038;-55
2023/04/28 16:14:00;;;;;;;4.38;3.00;;;;;;;;;;10315318;28;20042;-56
2023/04/28 16:19:00;;;;;;;6.45;3.17;;;;;;;;;;10324392;28;20034;-57
2023/04/28 16:24:02;;;;;;;13.90;4.15;;;;;;;;;;10325469;28;20375;-57
2023/04/28 16:29:03;;;;;;;7.18;2.80;;;;;;;;;;10314900;28;20038;-57
2023/04/28 16:34:04;;;;;;;5.68;3.20;;;;;;;;;;10320019;28;20497;-55
2023/04/28 16:39:04;;;;;;;3.60;2.80;;;;;;;;;;10321722;28;20042;-56
2023/04/28 16:44:05;;;;;;;5.18;3.10;;;;;;;;;;10321576;28;20025;-57
2023/04/28 16:49:06;;;;;;;7.53;2.88;;;;;;;;;;10322192;28;20038;-57
2023/04/28 16:54:06;;;;;;;10.18;3.17;;;;;;;;;;10320675;28;20121;-58
2023/04/28 16:59:07;;;;;;;6.85;2.25;;;;;;;;;;10322595;28;20049;-56
2023/04/28 17:04:07;;;;;;;9.65;2.83;;;;;;;;;;10327009;28;20042;-60
2023/04/28 17:09:08;;;;;;;4.85;2.22;;;;;;;;;;10329063;28;20081;-59
2023/04/28 17:14:09;;;;;;;5.47;2.50;;;;;;;;;;10329386;28;20030;-60
2023/04/28 17:19:13;;;;;;;3.72;2.08;;;;;;;;;;10317818;28;20061;-60
2023/04/28 17:24:14;;;;;;;9.98;2.60;;;;;;;;;;10322234;28;20025;-58
2023/04/28 17:29:15;;;;;;;7.10;2.30;;;;;;;;;;10331886;28;20386;-59
2023/04/28 17:34:16;;;;;;;6.63;2.42;;;;;;;;;;10322971;28;20030;-57
2023/04/28 17:39:16;;;;;;;4.32;2.50;;;;;;;;;;10330035;28;20100;-57
2023/04/28 17:44:17;;;;;;;2.55;1.95;;;;;;;;;;10329102;28;20026;-55
2023/04/28 17:49:17;;;;;;;5.40;2.22;;;;;;;;;;10331889;28;20202;-59
2023/04/28 17:54:18;;;;;;;4.00;2.25;;;;;;;;;;10330961;28;20065;-59
2023/04/28 17:59:19;;;;;;;6.75;2.60;;;;;;;;;;10338314;28;20026;-59
2023/04/28 18:04:19;;;;;;;3.25;2.20;;;;;;;;;;10324876;28;20105;-60
2023/04/28 18:09:20;;;;;;;10.00;2.30;;;;;;;;;;10329763;28;20037;-58
2023/04/28 18:14:20;;;;;;;2.22;2.00;;;;;;;;;;10328385;28;20089;-60
2023/04/28 18:19:21;;;;;;;2.97;2.03;;;;;;;;;;10326345;28;20030;-57
2023/04/28 18:24:23;;;;;;;7.07;2.33;;;;;;;;;;10321928;28;20022;-52
2023/04/28 18:29:23;;;;;;;2.95;2.00;;;;;;;;;;10329153;28;20244;-54
2023/04/28 18:34:24;;;;;;;10.57;2.22;;;;;;;;;;10329028;28;20338;-60
2023/04/28 18:39:25;;;;;;;5.80;2.25;;;;;;;;;;10318826;28;20061;-60
2023/04/28 18:44:25;;;;;;;4.68;1.92;;;;;;;;;;10320001;28;20034;-53
2023/04/28 18:49:26;;;;;;;3.85;1.90;;;;;;;;;;10317340;28;20288;-55
2023/04/28 18:54:27;;;;;;;2.13;1.90;;;;;;;;;;10328661;28;20430;-60
2023/04/28 18:59:27;;;;;;;10.70;3.40;;;;;;;;;;10327594;28;20105;-60
2023/04/28 19:04:28;;;;;;;4.30;2.10;;;;;;;;;;10340043;28;20026;-53
2023/04/28 19:09:30;;;;;;;4.00;1.80;;;;;;;;;;10324006;28;20030;-60
2023/04/28 19:14:30;;;;;;;4.93;2.40;;;;;;;;;;10327042;28;20038;-58
2023/04/28 19:19:31;;;;;;;4.65;2.05;;;;;;;;;;10322158;28;20023;-60
2023/04/28 19:24:32;;;;;;;3.67;1.98;;;;;;;;;;10317674;28;20466;-54
2023/04/28 19:29:33;;;;;;;5.28;2.22;;;;;;;;;;10326710;28;20128;-59
2023/04/28 19:34:33;;;;;;;24.67;3.08;;;;;;;;;;10321434;28;20101;-64
2023/04/28 19:39:35;;;;;;;13.15;2.97;;;;;;;;;;10318622;28;20049;-65
2023/04/28 19:44:36;;;;;;;21.08;3.35;;;;;;;;;;10312978;28;20356;-57
2023/04/28 19:49:40;;;;;;;9.52;2.40;;;;;;;;;;10325638;28;20026;-59
2023/04/28 19:54:42;;;;;;;11.15;2.40;;;;;;;;;;10319882;28;20030;-61
2023/04/28 19:59:43;;;;;;;20.30;3.35;;;;;;;;;;10316789;28;20259;-60
2023/04/28 20:04:43;;;;;;;6.35;2.63;;;;;;;;;;10321545;28;20174;-61
2023/04/28 20:09:44;;;;;;;6.75;2.45;;;;;;;;;;10318846;28;20049;-61
2023/04/28 20:14:44;;;;;;;8.77;2.45;;;;;;;;;;10324914;28;20027;-62
2023/04/28 20:19:45;;;;;;;5.70;2.17;;;;;;;;;;10324622;28;20031;-62
2023/04/28 20:24:46;;;;;;;7.28;2.42;;;;;;;;;;10322142;28;20038;-64
2023/04/28 20:29:46;;;;;;;8.00;2.42;;;;;;;;;;10324420;28;20410;-56
2023/04/28 20:34:47;;;;;;;7.35;2.42;;;;;;;;;;10325087;28;20034;-63
2023/04/28 20:39:49;;;;;;;13.45;2.40;;;;;;;;;;10320592;28;20053;-59
2023/04/28 20:44:49;;;;;;;13.65;2.53;;;;;;;;;;10310159;28;20100;-60
2023/04/28 20:49:50;;;;;;;8.68;2.35;;;;;;;;;;10331262;28;20074;-63
2023/04/28 20:54:52;;;;;;;5.15;2.10;;;;;;;;;;10322845;28;20034;-63
2023/04/28 20:59:53;;;;;;;7.95;2.05;;;;;;;;;;10320968;28;20026;-62
2023/04/28 21:04:54;;;;;;;6.20;2.10;;;;;;;;;;10310960;28;20030;-62
2023/04/28 21:09:54;;;;;;;5.65;2.00;;;;;;;;;;10319267;28;20430;-62
2023/04/28 21:14:55;;;;;;;4.18;2.22;;;;;;;;;;10321821;28;20041;-62
2023/04/28 21:19:56;;;;;;;6.22;2.20;;;;;;;;;;10322844;28;20469;-59
2023/04/28 21:24:56;;;;;;;5.60;2.10;;;;;;;;;;10323888;28;20046;-62
2023/04/28 21:29:57;;;;;;;5.55;2.08;;;;;;;;;;10320822;28;20124;-62
2023/04/28 21:34:58;;;;;;;5.15;2.30;;;;;;;;;;10319315;28;20498;-60
2023/04/28 21:39:58;;;;;;;5.00;2.58;;;;;;;;;;10317063;28;20046;-60
2023/04/28 21:44:59;;;;;;;3.97;2.22;;;;;;;;;;10320508;28;20030;-59
2023/04/28 21:50:00;;;;;;;2.90;1.90;;;;;;;;;;10318222;28;20482;-63
2023/04/28 21:55:00;;;;;;;9.30;2.20;;;;;;;;;;10326371;28;20033;-59
2023/04/28 22:00:01;;;;;;;5.22;2.45;;;;;;;;;;10330242;28;20038;-61
2023/04/28 22:05:03;;;;;;;3.10;1.83;;;;;;;;;;10323853;28;20030;-59
2023/04/28 22:10:05;;;;;;;5.90;2.10;;;;;;;;;;10328050;28;20042;-61
2023/04/28 22:15:06;;;;;;;6.72;2.25;;;;;;;;;;10311486;28;20062;-57
2023/04/28 22:20:08;;;;;;;5.38;2.65;;;;;;;;;;10329839;28;20027;-57
2023/04/28 22:25:10;;;;;;;5.70;2.10;;;;;;;;;;10327531;28;20452;-59
2023/04/28 22:30:13;;;;;;;5.43;2.13;;;;;;;;;;10326256;28;20057;-57
2023/04/28 22:35:15;;;;;;;24.30;2.25;;;;;;;;;;10330305;28;20088;-57
2023/04/28 22:40:15;;;;;;;9.27;2.13;;;;;;;;;;10331348;28;20050;-58
2023/04/28 22:45:16;;;;;;;3.97;2.05;;;;;;;;;;10326902;28;20030;-57
2023/04/28 22:50:17;;;;;;;5.35;1.83;;;;;;;;;;10330606;28;20092;-57
2023/04/28 22:55:19;;;;;;;5.05;2.03;;;;;;;;;;10328017;28;20448;-57
2023/04/28 23:00:19;;;;;;;4.53;2.10;;;;;;;;;;10327996;28;20045;-56
2023/04/28 23:05:20;;;;;;;3.95;2.00;;;;;;;;;;10328937;28;20029;-57
2023/04/28 23:10:20;;;;;;;2.58;1.90;;;;;;;;;;10331430;28;20042;-57
2023/04/28 23:15:21;;;;;;;4.32;2.05;;;;;;;;;;10326845;28;20386;-56
2023/04/28 23:20:21;;;;;;;4.88;2.17;;;;;;;;;;10327496;28;20034;-56
2023/04/28 23:25:22;;;;;;;5.25;1.88;;;;;;;;;;10327489;28;20113;-57
2023/04/28 23:30:23;;;;;;;4.40;2.00;;;;;;;;;;10326989;28;20034;-62
2023/04/28 23:35:23;;;;;;;8.73;2.03;;;;;;;;;;10334879;28;20033;-61
2023/04/28 23:40:24;;;;;;;3.17;1.60;;;;;;;;;;10321463;28;20104;-60
2023/04/28 23:45:25;;;;;;;4.18;1.60;;;;;;;;;;10326042;28;20070;-62
2023/04/28 23:50:26;;;;;;;2.80;1.83;;;;;;;;;;10325151;28;20042;-62
2023/04/28 23:55:27;;;;;;;4.50;2.13;;;;;;;;;;10325093;28;20049;-61
